createdAt,value
2023-01-13T00:00:57.383Z,10.83
2023-01-13T00:03:43.176Z,10.83
2023-01-13T00:06:29.292Z,10.86
2023-01-13T00:09:14.585Z,10.81
2023-01-13T00:11:59.398Z,10.79
2023-01-13T00:14:44.314Z,10.77
2023-01-13T00:17:29.674Z,10.76
2023-01-13T00:20:15.021Z,10.85
2023-01-13T00:23:01.431Z,10.82
2023-01-13T00:25:46.657Z,10.88
2023-01-13T00:28:32.795Z,10.87
2023-01-13T00:31:20.221Z,10.86
2023-01-13T00:34:05.476Z,10.78
2023-01-13T00:36:50.759Z,10.75
2023-01-13T00:39:36.030Z,10.63
2023-01-13T00:42:39.461Z,10.37
2023-01-13T00:45:24.701Z,10.20
2023-01-13T00:48:09.951Z,9.97
2023-01-13T00:50:56.370Z,9.75
2023-01-13T00:53:44.513Z,9.48
2023-01-13T00:56:39.842Z,9.34
2023-01-13T00:59:25.596Z,9.23
2023-01-13T01:02:10.612Z,9.16
2023-01-13T01:04:55.684Z,9.21
2023-01-13T01:07:40.725Z,9.25
2023-01-13T01:10:26.097Z,9.26
2023-01-13T01:13:14.794Z,9.53
2023-01-13T01:16:00.226Z,9.66
2023-01-13T01:18:47.366Z,9.68
2023-01-13T01:21:35.232Z,9.44
2023-01-13T01:24:21.271Z,9.51
2023-01-13T01:27:06.547Z,9.51
2023-01-13T01:29:51.794Z,9.50
2023-01-13T01:32:36.925Z,9.60
2023-01-13T01:35:22.183Z,9.58
2023-01-13T01:38:07.261Z,9.70
2023-01-13T01:40:52.476Z,9.61
2023-01-13T01:44:02.714Z,9.54
2023-01-13T01:46:48.257Z,9.58
2023-01-13T01:49:36.411Z,9.57
2023-01-13T01:52:28.513Z,9.48
2023-01-13T01:55:18.109Z,9.30
2023-01-13T01:58:21.882Z,9.21
2023-01-13T02:01:06.987Z,9.11
2023-01-13T02:04:03.844Z,9.07
2023-01-13T02:06:50.093Z,8.96
2023-01-13T02:09:35.886Z,9.06
2023-01-13T02:12:32.336Z,9.00
2023-01-13T02:15:26.171Z,9.01
2023-01-13T02:18:26.963Z,8.96
2023-01-13T02:21:27.961Z,8.93
2023-01-13T02:24:47.330Z,8.83
2023-01-13T02:27:51.794Z,8.85
2023-01-13T02:31:03.246Z,8.72
2023-01-13T02:34:11.871Z,8.86
2023-01-13T02:37:06.866Z,8.86
2023-01-13T02:40:04.557Z,8.93
2023-01-13T02:43:33.073Z,8.81
2023-01-13T02:46:25.402Z,8.76
2023-01-13T02:49:18.041Z,8.81
2023-01-13T02:52:12.910Z,8.69
2023-01-13T02:55:04.347Z,8.64
2023-01-13T02:57:52.648Z,8.67
2023-01-13T03:00:38.112Z,8.62
2023-01-13T03:03:23.350Z,8.63
2023-01-13T03:06:20.153Z,8.58
2023-01-13T03:09:29.715Z,8.54
2023-01-13T03:12:30.713Z,8.53
2023-01-13T03:15:47.715Z,8.54
2023-01-13T03:19:05.775Z,8.54
2023-01-13T03:21:57.040Z,8.58
2023-01-13T03:25:09.611Z,8.55
2023-01-13T03:28:05.555Z,8.58
2023-01-13T03:30:58.694Z,8.56
2023-01-13T03:33:55.087Z,8.61
2023-01-13T03:36:41.583Z,8.59
2023-01-13T03:39:31.068Z,8.56
2023-01-13T03:42:23.811Z,8.59
2023-01-13T03:45:15.181Z,8.49
2023-01-13T03:48:05.663Z,8.43
2023-01-13T03:50:53.905Z,8.47
2023-01-13T03:53:45.570Z,8.44
2023-01-13T03:56:42.684Z,8.44
2023-01-13T03:59:33.430Z,8.42
2023-01-13T04:02:33.136Z,8.45
2023-01-13T04:05:18.694Z,8.40
2023-01-13T04:08:22.403Z,8.36
2023-01-13T04:11:15.276Z,8.34
2023-01-13T04:14:03.277Z,8.26
2023-01-13T04:16:49.170Z,8.23
2023-01-13T04:19:34.456Z,8.21
2023-01-13T04:22:19.441Z,8.13
2023-01-13T04:25:05.350Z,8.06
2023-01-13T04:27:50.383Z,7.92
2023-01-13T04:30:36.123Z,8.00
2023-01-13T04:33:21.363Z,8.00
2023-01-13T04:36:06.814Z,7.93
2023-01-13T04:38:51.750Z,7.85
2023-01-13T04:41:55.840Z,7.94
2023-01-13T04:44:40.989Z,7.82
2023-01-13T04:47:26.242Z,7.72
2023-01-13T04:50:11.605Z,7.69
2023-01-13T04:52:56.637Z,7.67
2023-01-13T04:55:41.659Z,7.60
2023-01-13T04:58:26.811Z,7.67
2023-01-13T05:01:11.784Z,7.69
2023-01-13T05:03:57.453Z,7.73
2023-01-13T05:06:42.849Z,7.64
2023-01-13T05:09:27.712Z,7.72
2023-01-13T05:12:31.551Z,7.75
2023-01-13T05:15:35.247Z,7.82
2023-01-13T05:18:20.732Z,7.82
2023-01-13T05:21:25.765Z,7.69
2023-01-13T05:24:30.342Z,7.69
2023-01-13T05:27:15.372Z,7.70
2023-01-13T05:30:00.571Z,7.79
2023-01-13T05:32:46.000Z,7.82
2023-01-13T05:35:31.183Z,7.90
2023-01-13T05:38:17.864Z,7.83
2023-01-13T05:41:21.607Z,7.78
2023-01-13T05:44:06.621Z,7.64
2023-01-13T05:46:51.682Z,7.74
2023-01-13T05:49:36.758Z,7.92
2023-01-13T05:52:21.572Z,7.90
2023-01-13T05:55:06.827Z,7.98
2023-01-13T05:57:52.136Z,7.97
2023-01-13T06:00:37.373Z,8.11
2023-01-13T06:03:22.319Z,8.10
2023-01-13T06:06:08.796Z,8.02
2023-01-13T06:08:53.507Z,8.12
2023-01-13T06:11:38.668Z,8.16
2023-01-13T06:14:23.423Z,8.09
2023-01-13T06:17:14.103Z,8.22
2023-01-13T06:19:58.832Z,8.18
2023-01-13T06:22:46.899Z,8.17
2023-01-13T06:25:31.699Z,8.20
2023-01-13T06:28:16.789Z,8.32
2023-01-13T06:31:06.007Z,8.29
2023-01-13T06:33:56.137Z,8.33
2023-01-13T06:36:46.394Z,8.50
2023-01-13T06:39:31.927Z,8.47
2023-01-13T06:42:35.316Z,8.48
2023-01-13T06:45:22.376Z,8.50
2023-01-13T06:48:07.472Z,8.60
2023-01-13T06:50:52.376Z,8.56
2023-01-13T06:53:37.307Z,8.43
2023-01-13T06:56:22.312Z,8.50
2023-01-13T06:59:07.476Z,8.40
2023-01-13T07:01:52.410Z,8.45
2023-01-13T07:04:37.266Z,8.47
2023-01-13T07:07:22.160Z,8.52
2023-01-13T07:10:12.997Z,8.44
2023-01-13T07:13:19.237Z,8.36
2023-01-13T07:16:06.519Z,8.27
2023-01-13T07:18:51.498Z,8.22
2023-01-13T07:21:36.613Z,8.22
2023-01-13T07:24:22.449Z,8.18
2023-01-13T07:27:07.616Z,8.11
2023-01-13T07:29:52.292Z,7.97
2023-01-13T07:32:37.403Z,7.91
2023-01-13T07:35:23.387Z,7.96
2023-01-13T07:38:08.359Z,7.98
2023-01-13T07:40:53.609Z,7.80
2023-01-13T07:43:38.348Z,7.62
2023-01-13T07:46:23.606Z,7.50
2023-01-13T07:49:09.355Z,7.45
2023-01-13T07:51:54.439Z,7.36
2023-01-13T07:54:41.196Z,7.34
2023-01-13T07:57:26.444Z,7.30
2023-01-13T08:00:12.988Z,7.25
2023-01-13T08:03:00.240Z,7.17
2023-01-13T08:05:45.646Z,7.19
2023-01-13T08:08:30.796Z,7.11
2023-01-13T08:11:15.680Z,7.15
2023-01-13T08:14:01.798Z,7.15
2023-01-13T08:16:46.460Z,7.18
2023-01-13T08:19:31.519Z,7.28
2023-01-13T08:22:16.600Z,7.23
2023-01-13T08:25:02.058Z,7.11
2023-01-13T08:27:49.713Z,7.22
2023-01-13T08:30:34.524Z,7.34
2023-01-13T08:33:19.626Z,7.36
2023-01-13T08:36:06.956Z,7.50
2023-01-13T08:38:52.068Z,7.50
2023-01-13T08:41:55.141Z,7.60
2023-01-13T08:44:40.404Z,7.73
2023-01-13T08:47:27.773Z,7.83
2023-01-13T08:50:13.240Z,8.09
2023-01-13T08:52:57.930Z,8.31
2023-01-13T08:55:42.868Z,8.37
2023-01-13T08:58:28.133Z,8.58
2023-01-13T09:01:18.350Z,8.74
2023-01-13T09:04:03.497Z,8.77
2023-01-13T09:06:49.750Z,8.69
2023-01-13T09:09:34.787Z,8.70
2023-01-13T09:12:38.594Z,8.61
2023-01-13T09:15:23.778Z,8.88
2023-01-13T09:18:09.352Z,8.96
2023-01-13T09:20:54.215Z,8.90
2023-01-13T09:23:39.004Z,8.79
2023-01-13T09:26:23.962Z,8.80
2023-01-13T09:29:08.979Z,8.77
2023-01-13T09:31:53.952Z,8.88
2023-01-13T09:34:57.986Z,9.02
2023-01-13T09:37:42.861Z,9.11
2023-01-13T09:40:27.782Z,9.14
2023-01-13T09:43:44.357Z,9.38
2023-01-13T09:46:47.559Z,9.56
2023-01-13T09:49:38.861Z,9.97
2023-01-13T09:52:27.017Z,9.98
2023-01-13T09:55:17.426Z,9.63
2023-01-13T09:58:13.033Z,9.88
2023-01-13T10:01:06.240Z,9.96
2023-01-13T10:03:51.414Z,9.68
2023-01-13T10:06:42.441Z,10.15
2023-01-13T10:09:33.764Z,10.38
2023-01-13T10:12:42.789Z,10.55
2023-01-13T10:15:27.827Z,10.24
2023-01-13T10:18:25.131Z,10.16
2023-01-13T10:21:47.890Z,10.01
2023-01-13T10:24:58.858Z,9.65
2023-01-13T10:27:49.163Z,9.84
2023-01-13T10:30:38.697Z,9.73
2023-01-13T10:33:28.441Z,9.55
2023-01-13T10:36:14.928Z,9.50
2023-01-13T10:39:16.655Z,10.29
2023-01-13T10:42:03.782Z,10.26
2023-01-13T10:44:55.763Z,10.55
2023-01-13T10:47:40.994Z,10.44
2023-01-13T10:50:29.035Z,10.26
2023-01-13T10:53:25.018Z,10.11
2023-01-13T10:56:16.794Z,10.07
2023-01-13T10:59:24.546Z,9.89
2023-01-13T11:02:29.399Z,9.74
2023-01-13T11:05:24.354Z,9.76
2023-01-13T11:08:18.548Z,9.83
2023-01-13T11:11:03.466Z,9.95
2023-01-13T11:14:12.215Z,10.03
2023-01-13T11:17:01.683Z,10.64
2023-01-13T11:19:58.031Z,10.25
2023-01-13T11:22:47.759Z,10.19
2023-01-13T11:25:42.798Z,10.08
2023-01-13T11:28:27.823Z,10.00
2023-01-13T11:31:27.772Z,10.26
2023-01-13T11:34:26.733Z,10.17
2023-01-13T11:37:31.114Z,10.20
2023-01-13T11:40:36.896Z,10.10
2023-01-13T11:43:36.249Z,10.10
2023-01-13T11:46:26.807Z,10.50
2023-01-13T11:49:30.879Z,11.47
2023-01-13T11:52:18.871Z,10.85
2023-01-13T11:55:30.609Z,10.32
2023-01-13T11:58:49.442Z,9.96
2023-01-13T12:02:05.031Z,9.92
2023-01-13T12:05:18.957Z,10.03
2023-01-13T12:08:19.431Z,9.42
2023-01-13T12:11:07.344Z,9.28
2023-01-13T12:14:12.967Z,9.51
2023-01-13T12:17:01.195Z,9.59
2023-01-13T12:19:49.913Z,9.33
2023-01-13T12:22:37.087Z,9.38
2023-01-13T12:25:36.895Z,9.48
2023-01-13T12:28:30.713Z,9.40
2023-01-13T12:31:18.894Z,9.61
2023-01-13T12:34:13.576Z,9.49
2023-01-13T12:37:09.877Z,9.50
2023-01-13T12:40:38.650Z,9.35
2023-01-13T12:43:43.346Z,9.32
2023-01-13T12:46:28.121Z,9.29
2023-01-13T12:49:22.085Z,9.26
2023-01-13T12:52:07.725Z,9.33
2023-01-13T12:54:53.644Z,9.40
2023-01-13T12:57:40.073Z,9.50
2023-01-13T13:00:45.589Z,9.40
2023-01-13T13:03:35.369Z,9.31
2023-01-13T13:06:23.883Z,9.33
2023-01-13T13:09:32.678Z,9.27
2023-01-13T13:12:51.595Z,9.26
2023-01-13T13:15:37.103Z,9.06
2023-01-13T13:18:28.153Z,8.99
2023-01-13T13:21:13.006Z,8.91
2023-01-13T13:24:03.012Z,8.74
2023-01-13T13:26:48.254Z,8.73
2023-01-13T13:29:49.770Z,8.67
2023-01-13T13:33:00.188Z,8.58
2023-01-13T13:35:52.099Z,8.58
2023-01-13T13:39:24.955Z,8.58
2023-01-13T13:42:36.854Z,8.68
2023-01-13T13:45:42.971Z,8.60
2023-01-13T13:48:33.758Z,8.58
2023-01-13T13:51:39.160Z,8.53
2023-01-13T13:54:25.484Z,8.42
2023-01-13T13:57:22.654Z,8.21
2023-01-13T14:00:21.415Z,8.17
2023-01-13T14:03:18.385Z,8.11
2023-01-13T14:06:05.759Z,8.06
2023-01-13T14:08:50.819Z,8.01
2023-01-13T14:11:36.286Z,7.99
2023-01-13T14:14:21.485Z,7.96
2023-01-13T14:17:06.369Z,7.83
2023-01-13T14:20:05.034Z,7.79
2023-01-13T14:22:52.901Z,7.66
2023-01-13T14:25:45.676Z,7.65
2023-01-13T14:28:41.711Z,7.62
2023-01-13T14:31:27.342Z,7.64
2023-01-13T14:34:30.530Z,7.66
2023-01-13T14:37:35.087Z,7.69
2023-01-13T14:40:36.114Z,7.70
2023-01-13T14:43:24.384Z,7.84
2023-01-13T14:46:09.485Z,7.75
2023-01-13T14:49:01.281Z,7.83
2023-01-13T14:51:46.064Z,7.86
2023-01-13T14:54:46.107Z,7.92
2023-01-13T14:57:32.828Z,7.94
2023-01-13T15:00:22.071Z,7.97
2023-01-13T15:03:08.124Z,8.02
2023-01-13T15:05:53.481Z,7.99
2023-01-13T15:08:39.566Z,8.04
2023-01-13T15:11:27.979Z,8.11
2023-01-13T15:14:23.058Z,8.10
2023-01-13T15:17:17.308Z,8.03
2023-01-13T15:20:03.082Z,8.05
2023-01-13T15:22:48.653Z,8.02
2023-01-13T15:25:44.149Z,7.96
2023-01-13T15:28:31.817Z,7.98
2023-01-13T15:31:17.064Z,7.89
2023-01-13T15:34:01.897Z,7.90
2023-01-13T15:36:46.927Z,7.81
2023-01-13T15:39:31.892Z,7.93
2023-01-13T15:42:35.785Z,7.87
2023-01-13T15:45:39.704Z,7.90
2023-01-13T15:48:27.808Z,7.91
2023-01-13T15:51:13.726Z,7.95
2023-01-13T15:54:02.312Z,8.00
2023-01-13T15:56:47.250Z,8.06
2023-01-13T15:59:33.730Z,8.04
2023-01-13T16:02:19.084Z,8.08
2023-01-13T16:05:05.261Z,8.09
2023-01-13T16:07:50.320Z,8.08
2023-01-13T16:10:35.251Z,8.12
2023-01-13T16:13:20.186Z,8.17
2023-01-13T16:16:18.329Z,8.16
2023-01-13T16:19:03.306Z,8.13
2023-01-13T16:21:48.470Z,8.10
2023-01-13T16:24:33.355Z,8.14
2023-01-13T16:27:21.486Z,8.13
2023-01-13T16:30:07.566Z,8.12
2023-01-13T16:32:52.769Z,8.13
2023-01-13T16:35:37.753Z,8.09
2023-01-13T16:38:43.030Z,8.05
2023-01-13T16:41:28.041Z,8.05
2023-01-13T16:44:13.228Z,8.07
2023-01-13T16:46:58.116Z,8.04
2023-01-13T16:49:43.444Z,8.03
2023-01-13T16:52:28.608Z,8.11
2023-01-13T16:55:13.470Z,8.12
2023-01-13T16:57:58.447Z,8.05
2023-01-13T17:00:46.636Z,7.92
2023-01-13T17:03:35.664Z,7.86
2023-01-13T17:06:24.764Z,7.88
2023-01-13T17:09:19.662Z,7.84
2023-01-13T17:12:04.624Z,7.85
2023-01-13T17:14:49.804Z,7.85
2023-01-13T17:17:34.557Z,7.82
2023-01-13T17:20:19.594Z,7.85
2023-01-13T17:23:04.629Z,7.79
2023-01-13T17:25:49.447Z,7.72
2023-01-13T17:28:34.589Z,7.83
2023-01-13T17:31:19.943Z,7.75
2023-01-13T17:34:05.343Z,7.76
2023-01-13T17:36:50.425Z,7.75
2023-01-13T17:39:35.343Z,7.78
2023-01-13T17:42:20.373Z,7.82
2023-01-13T17:45:06.182Z,7.86
2023-01-13T17:47:51.105Z,7.88
2023-01-13T17:50:36.110Z,7.85
2023-01-13T17:53:21.443Z,7.95
2023-01-13T17:56:08.656Z,8.03
2023-01-13T17:58:53.504Z,8.07
2023-01-13T18:01:39.252Z,8.14
2023-01-13T18:04:28.642Z,8.21
2023-01-13T18:07:13.496Z,8.24
2023-01-13T18:09:58.388Z,8.25
2023-01-13T18:12:43.399Z,8.26
2023-01-13T18:15:28.998Z,8.27
2023-01-13T18:18:14.052Z,8.28
2023-01-13T18:21:17.728Z,8.31
2023-01-13T18:24:21.926Z,8.30
2023-01-13T18:27:22.604Z,8.34
2023-01-13T18:30:08.264Z,8.36
2023-01-13T18:32:53.465Z,8.44
2023-01-13T18:35:39.563Z,8.48
2023-01-13T18:38:27.132Z,8.51
2023-01-13T18:41:30.952Z,8.49
2023-01-13T18:44:16.107Z,8.50
2023-01-13T18:47:01.189Z,8.55
2023-01-13T18:49:46.380Z,8.52
2023-01-13T18:52:31.399Z,8.55
2023-01-13T18:55:16.670Z,8.56
2023-01-13T18:58:02.164Z,8.59
2023-01-13T19:00:47.327Z,8.55
2023-01-13T19:03:32.484Z,8.52
2023-01-13T19:06:17.397Z,8.50
2023-01-13T19:09:08.466Z,8.46
2023-01-13T19:11:53.476Z,8.51
2023-01-13T19:14:38.456Z,8.48
2023-01-13T19:17:25.641Z,8.44
2023-01-13T19:20:11.344Z,8.47
2023-01-13T19:22:56.354Z,8.42
2023-01-13T19:25:41.305Z,8.43
2023-01-13T19:28:26.495Z,8.45
2023-01-13T19:31:11.898Z,8.42
2023-01-13T19:33:57.740Z,8.46
2023-01-13T19:36:42.899Z,8.45
2023-01-13T19:39:28.040Z,8.42
2023-01-13T19:42:31.909Z,8.48
2023-01-13T19:45:33.735Z,8.47
2023-01-13T19:48:18.784Z,8.53
2023-01-13T19:51:04.646Z,8.47
2023-01-13T19:53:49.484Z,8.52
2023-01-13T19:56:34.613Z,8.56
2023-01-13T19:59:22.065Z,8.50
2023-01-13T20:02:31.408Z,8.51
2023-01-13T20:05:21.722Z,8.46
2023-01-13T20:08:06.523Z,8.43
2023-01-13T20:11:11.446Z,8.47
2023-01-13T20:14:00.323Z,8.45
2023-01-13T20:16:45.467Z,8.48
2023-01-13T20:19:30.426Z,8.47
2023-01-13T20:22:15.506Z,8.41
2023-01-13T20:25:00.306Z,8.32
2023-01-13T20:27:47.281Z,8.34
2023-01-13T20:30:32.291Z,8.33
2023-01-13T20:33:17.651Z,8.28
2023-01-13T20:36:02.966Z,8.26
2023-01-13T20:38:47.709Z,8.23
2023-01-13T20:41:51.518Z,8.21
2023-01-13T20:44:36.604Z,8.07
2023-01-13T20:47:21.745Z,8.05
2023-01-13T20:50:07.403Z,8.02
2023-01-13T20:52:52.508Z,8.04
2023-01-13T20:55:39.724Z,8.01
2023-01-13T20:58:24.808Z,8.07
2023-01-13T21:01:10.033Z,8.02
2023-01-13T21:03:56.938Z,8.07
2023-01-13T21:06:42.246Z,8.13
2023-01-13T21:09:27.686Z,8.11
2023-01-13T21:12:34.833Z,8.07
2023-01-13T21:15:21.687Z,8.08
2023-01-13T21:18:25.237Z,8.12
2023-01-13T21:21:13.269Z,8.14
2023-01-13T21:23:58.092Z,8.16
2023-01-13T21:26:43.347Z,8.15
2023-01-13T21:29:28.543Z,8.17
2023-01-13T21:32:13.688Z,8.12
2023-01-13T21:35:01.990Z,8.18
2023-01-13T21:37:47.054Z,8.18
2023-01-13T21:40:31.963Z,8.21
2023-01-13T21:43:35.395Z,8.17
2023-01-13T21:46:40.629Z,8.19
2023-01-13T21:49:25.754Z,8.19
2023-01-13T21:52:12.207Z,8.19
2023-01-13T21:55:15.907Z,8.23
2023-01-13T21:58:14.049Z,8.23
2023-01-13T22:01:01.466Z,8.20
2023-01-13T22:04:05.107Z,8.19
2023-01-13T22:06:50.315Z,8.14
2023-01-13T22:09:35.158Z,8.13
2023-01-13T22:12:23.773Z,8.15
2023-01-13T22:15:10.015Z,8.18
2023-01-13T22:17:55.939Z,8.13
2023-01-13T22:20:41.938Z,8.07
2023-01-13T22:23:26.840Z,8.06
2023-01-13T22:26:11.771Z,8.04
2023-01-13T22:28:56.921Z,8.09
2023-01-13T22:31:41.846Z,8.04
2023-01-13T22:34:26.757Z,8.01
2023-01-13T22:37:12.361Z,7.94
2023-01-13T22:39:57.475Z,7.90
2023-01-13T22:42:43.033Z,7.90
2023-01-13T22:45:27.784Z,7.84
2023-01-13T22:48:12.852Z,7.76
2023-01-13T22:51:04.202Z,7.78
2023-01-13T22:53:49.368Z,7.76
2023-01-13T22:56:34.891Z,7.76
2023-01-13T22:59:21.764Z,7.74
2023-01-13T23:02:06.419Z,7.70
2023-01-13T23:04:51.353Z,7.71
2023-01-13T23:07:36.159Z,7.74
2023-01-13T23:10:20.999Z,7.72
2023-01-13T23:13:06.117Z,7.75
2023-01-13T23:15:50.965Z,7.71
2023-01-13T23:18:36.250Z,7.69
2023-01-13T23:21:27.333Z,7.72
2023-01-13T23:24:12.570Z,7.70
2023-01-13T23:26:57.616Z,7.70
2023-01-13T23:29:42.335Z,7.71
2023-01-13T23:32:27.345Z,7.73
2023-01-13T23:35:12.169Z,7.63
2023-01-13T23:37:57.322Z,7.68
2023-01-13T23:40:44.936Z,7.72
2023-01-13T23:43:30.026Z,7.72
2023-01-13T23:46:16.609Z,7.82
2023-01-13T23:49:03.423Z,7.87
2023-01-13T23:51:51.877Z,7.83
2023-01-13T23:54:36.797Z,7.81
2023-01-13T23:57:21.694Z,7.78
